Other Surface Observations
Issued by NWS Great Falls, MT

Home | Current Version | Previous Version | Text Only | Print | Product List | Glossary On
Versions: 1 2 3 4 5 6 7 8 9 10 11 12 13 14 15 16 17 18 19 20 21 22 23 24 25 26 27 28 29 30 31 32 33 34 35 36 37 38 39 40 41 42 43 44 45 46 47 48 49 50
000
SXUS55 KTFX 280708
OSOTFX
AREA AWOS OBSERVATIONS
NATIONAL WEATHER SERVICE GREAT FALLS MT
1205 AM MST FRI NOV 28 2014

METAR KPWD 280700Z AUTO 10011G14KT 5SM M10/M12 A2974 RMK PLENTYWOOD
METAR KPO1 280700Z AUTO 5SM M08/M09 A2974 RMK POPLAR
METAR K1S3 280700Z AUTO 24004KT 10SM 09/00 A2969 RMK FORSYTH
METAR KS71 280700Z AUTO 00000KT 1/4SM M02/M02 A2966 RMK CHINOOK
METAR K6S0 280700Z AUTO 24027G37KT 8SM 12/M01 A2971 RMK BIG TIMBER
METAR K79S 280700Z AUTO 24005KT 10SM 09/02 A2964 RMK FORT BENTON
METAR KEKS 280700Z AUTO 10SM RMK ENNIS
METAR K38S 280700Z AUTO 14013G24KT 10SM 07/01 A2985 RMK DEER LODGE
METAR K6S5 280700Z AUTO 15013KT 10SM 10/02 A2982 RMK HAMILTON
METAR KS59 280700Z AUTO 00000KT 10SM 06/04 A2968 RMK LIBBY
METAR K88M 280700Z AUTO 15015G25KT 10SM 11/03 A2963 RMK EUREKA



USA.gov is the U.S. government's official web portal to all federal, state and local government web resources and services.